Mae Purissima — CUCV-5 — position and weather

sailwx.info

Track history (hours):
 
Tides and Currents Weather Stations Pressure Air Temp Water Temp Dewpoint Dewpoint Depression Visibility Wind Speed Wind Dir Waves Ship Positions

Mae Purissima

Last reported at 2018-Feb-22 06:58 UTC. Time now 2018-Feb-22 07:26 UTC.
Position N 39°11' W 009°29'.

Length 18 m.

Type: Fishing. MMSI: 263414850.

Date/timePositionNaut miles runAvg speedWind from/ knotsBaromVisibWave heightAir tempDewpointWater temp
2018-Feb-22 06:58N 39°11' W 009°29'0 0.4
2018-Feb-22 06:30N 39°11' W 009°29'0 0.1
2018-Feb-22 05:59N 39°11' W 009°29'1 1.3
2018-Feb-22 05:30N 39°11' W 009°29'1 1.6
2018-Feb-22 04:51N 39°12' W 009°30'5 0.4
2018-Feb-21 15:48N 39°17' W 009°27'3 6.2
2018-Feb-21 15:24N 39°14' W 009°29'2 3.5
2018-Feb-21 14:55N 39°13' W 009°30'1 1.5
2018-Feb-21 14:27N 39°12' W 009°30'0 0.2
2018-Feb-21 14:00N 39°12' W 009°30'1 1.4
2018-Feb-21 13:30N 39°13' W 009°30'1 1.4
2018-Feb-21 12:29N 39°14' W 009°30'1 1.8
2018-Feb-21 11:57N 39°13' W 009°30'2 5.5
2018-Feb-21 11:30N 39°11' W 009°29'0 0.7
2018-Feb-21 11:00N 39°11' W 009°28'1 1.9
2018-Feb-21 10:30N 39°11' W 009°29'1 1.4
2018-Feb-21 09:54N 39°10' W 009°29'0 0.5
2018-Feb-21 09:30N 39°10' W 009°29'1 1.4
2018-Feb-21 09:01N 39°11' W 009°28'1 1.2
2018-Feb-21 08:30N 39°10' W 009°29'1 1.4
2018-Feb-21 08:00N 39°11' W 009°28'1 1.6
2018-Feb-21 07:31N 39°11' W 009°29'1 1.3
2018-Feb-21 06:59N 39°11' W 009°29'1 1.2
2018-Feb-21 06:31N 39°11' W 009°29'0 0.3
2018-Feb-21 06:00N 39°11' W 009°29'1 3.0
2018-Feb-21 05:30N 39°13' W 009°30'1 1.6
2018-Feb-21 04:59N 39°13' W 009°29'2 0.2
2018-Feb-20 14:43N 39°16' W 009°28'1 6.1
2018-Feb-20 14:29N 39°14' W 009°29'2 3.6
2018-Feb-20 14:00N 39°13' W 009°30'1 1.5
2018-Feb-20 13:29N 39°12' W 009°30'0 0.8
2018-Feb-20 13:00N 39°12' W 009°30'1 1.3
2018-Feb-20 12:30N 39°13' W 009°30'1 2.3
2018-Feb-20 11:54N 39°14' W 009°30'1 2.8
2018-Feb-20 11:30N 39°13' W 009°30'1 1.5
2018-Feb-20 11:00N 39°13' W 009°30'1 1.4
2018-Feb-20 10:30N 39°12' W 009°30'2 3.2
2018-Feb-20 10:00N 39°11' W 009°29'0 0.7
2018-Feb-20 09:30N 39°10' W 009°29'1 1.6
2018-Feb-20 09:00N 39°11' W 009°29'0 0.8
2018-Feb-20 08:30N 39°11' W 009°29'0 0.3
2018-Feb-20 07:59N 39°11' W 009°29'0 1.0
2018-Feb-20 07:30N 39°10' W 009°29'0 0.5
2018-Feb-20 06:59N 39°10' W 009°29'0 0.3
2018-Feb-20 06:31N 39°11' W 009°29'0 0.4
2018-Feb-20 06:00N 39°11' W 009°29'0 0.5
2018-Feb-20 05:30N 39°10' W 009°28'1 1.1
2018-Feb-20 05:00N 39°11' W 009°29'1 1.0
2018-Feb-20 04:30N 39°11' W 009°29'1 2.7
2018-Feb-20 03:58N 39°13' W 009°30'1 1.2
2018-Feb-20 03:30N 39°13' W 009°29'5 6.2
2018-Feb-20 02:40N 39°17' W 009°25'3 0.2
2018-Feb-19 08:47N 39°14' W 009°27'2 7.5
2018-Feb-19 08:29N 39°12' W 009°29'2 3.6
2018-Feb-19 07:58N 39°10' W 009°29'0 0.9
2018-Feb-19 07:30N 39°11' W 009°29'1 1.3
2018-Feb-19 07:00N 39°11' W 009°30'0 0.1
2018-Feb-19 06:30N 39°11' W 009°30'1 1.6
2018-Feb-19 06:00N 39°10' W 009°29'0 0.8
2018-Feb-19 05:30N 39°10' W 009°29'1 1.4
2018-Feb-19 05:00N 39°11' W 009°29'1 1.1
2018-Feb-19 04:30N 39°11' W 009°30'1 1.5
2018-Feb-19 04:00N 39°11' W 009°29'1 1.3
2018-Feb-19 03:30N 39°11' W 009°28'1 1.1
2018-Feb-19 03:00N 39°11' W 009°29'1 1.6
2018-Feb-19 02:30N 39°11' W 009°30'1 1.7
2018-Feb-19 02:00N 39°12' W 009°30'4 5.2
2018-Feb-19 01:19N 39°14' W 009°27'1 0.2
2018-Feb-18 16:57N 39°16' W 009°28'3 6.7
2018-Feb-18 16:30N 39°13' W 009°30'1 1.6
2018-Feb-18 15:58N 39°12' W 009°30'0 1.0
2018-Feb-18 15:30N 39°12' W 009°30'1 1.5
2018-Feb-18 15:00N 39°13' W 009°30'0 0.7
2018-Feb-18 14:27N 39°12' W 009°30'2 4.1
2018-Feb-18 14:00N 39°11' W 009°28'1 1.0
2018-Feb-18 13:27N 39°10' W 009°29'1 1.8
2018-Feb-18 13:00N 39°10' W 009°30'1 1.5
2018-Feb-18 12:29N 39°10' W 009°30'0 0.6
2018-Feb-18 12:00N 39°10' W 009°30'0 0.2
2018-Feb-18 11:29N 39°10' W 009°30'2 3.0
2018-Feb-18 10:58N 39°10' W 009°32'2 3.2
2018-Feb-18 10:30N 39°11' W 009°34'1 1.2
2018-Feb-18 10:00N 39°11' W 009°34'0 0.9
2018-Feb-18 09:30N 39°11' W 009°33'1 1.1
2018-Feb-18 09:00N 39°11' W 009°34'1 1.3
2018-Feb-18 08:31N 39°11' W 009°33'2 4.1
2018-Feb-18 08:00N 39°11' W 009°30'1 1.4
2018-Feb-18 07:19N 39°10' W 009°29'0 1.1
2018-Feb-18 07:00N 39°10' W 009°29'0 0.5
2018-Feb-18 06:30N 39°10' W 009°29'1 1.3
2018-Feb-18 06:00N 39°11' W 009°29'2 3.7
2018-Feb-18 05:30N 39°13' W 009°30'1 1.6
2018-Feb-18 05:00N 39°13' W 009°29'5 6.8
2018-Feb-18 04:17N 39°17' W 009°25'4 0.3
2018-Feb-17 16:11N 39°15' W 009°29'2 6.9
2018-Feb-17 15:57N 39°13' W 009°29'1 2.1
2018-Feb-17 15:28N 39°13' W 009°30'1 1.2
2018-Feb-17 15:00N 39°12' W 009°30'1 1.5
2018-Feb-17 14:30N 39°13' W 009°30'0 0.3
2018-Feb-17 14:00N 39°13' W 009°30'3 6.5
2018-Feb-17 13:30N 39°11' W 009°33'0 0.6
2018-Feb-17 13:00N 39°11' W 009°34'3 5.6
2018-Feb-17 12:30N 39°10' W 009°30'1 1.6
2018-Feb-17 11:54N 39°10' W 009°29'1 2.5
2018-Feb-17 11:30N 39°11' W 009°30'0 0.5
2018-Feb-17 11:00N 39°11' W 009°30'0 0.5
2018-Feb-17 10:30N 39°11' W 009°29'1 1.3
2018-Feb-17 09:50N 39°10' W 009°29'1 1.6
2018-Feb-17 09:30N 39°10' W 009°29'0 0.6
2018-Feb-17 08:59N 39°10' W 009°29'0 0.9
2018-Feb-17 08:30N 39°11' W 009°28'0 0.3
2018-Feb-17 07:59N 39°11' W 009°29'0 0.4
2018-Feb-17 07:30N 39°11' W 009°29'0 0.5
2018-Feb-17 07:00N 39°11' W 009°29'0 0.5
2018-Feb-17 06:30N 39°11' W 009°29'1 1.0
2018-Feb-17 06:00N 39°11' W 009°28'1 0.9
2018-Feb-17 05:19N 39°11' W 009°29'1 4.1
2018-Feb-17 04:59N 39°12' W 009°30'1 1.6
2018-Feb-17 04:30N 39°13' W 009°30'1 1.0
2018-Feb-17 03:54N 39°13' W 009°30'0 0.6
2018-Feb-17 03:30N 39°12' W 009°30'0 0.6
2018-Feb-17 03:00N 39°12' W 009°30'0 0.5
2018-Feb-17 02:30N 39°12' W 009°30'0 0.4
2018-Feb-17 02:00N 39°12' W 009°30'0 0.3
2018-Feb-17 01:30N 39°11' W 009°30'0 0.3
2018-Feb-17 01:00N 39°11' W 009°30'0 0.2
2018-Feb-17 00:30N 39°11' W 009°30'0 0.1
2018-Feb-17 00:01N 39°11' W 009°30'0 0.1
2018-Feb-16 23:30N 39°11' W 009°30'1 1.6
2018-Feb-16 22:58N 39°11' W 009°29'1 1.4
2018-Feb-16 22:30N 39°11' W 009°29'0 0.8
2018-Feb-16 21:59N 39°10' W 009°29'0 0.6
2018-Feb-16 21:30N 39°10' W 009°29'1 1.0
2018-Feb-16 20:59N 39°10' W 009°29'1 1.3
2018-Feb-16 20:30N 39°11' W 009°30'3 6.5
2018-Feb-16 19:59N 39°14' W 009°27'2 0.4
2018-Feb-16 14:26N 39°16' W 009°27'2 1.7
2018-Feb-16 13:01N 39°13' W 009°28'0 1.8
2018-Feb-16 12:59N 39°13' W 009°28'2 5.1
2018-Feb-16 12:30N 39°11' W 009°29'1 1.3
2018-Feb-16 12:00N 39°11' W 009°29'0 0.5
2018-Feb-16 11:30N 39°10' W 009°29'1 1.9
2018-Feb-16 11:00N 39°11' W 009°30'0 0.5
2018-Feb-16 10:23N 39°11' W 009°29'1 1.3
2018-Feb-16 09:59N 39°10' W 009°29'0 0.6
2018-Feb-16 09:30N 39°10' W 009°29'1 1.1
2018-Feb-16 09:00N 39°11' W 009°28'0 0.2
2018-Feb-16 08:30N 39°11' W 009°28'1 1.1
2018-Feb-16 08:00N 39°10' W 009°29'1 1.4
2018-Feb-16 07:30N 39°11' W 009°28'1 1.4
2018-Feb-16 07:00N 39°10' W 009°29'1 1.5
2018-Feb-16 06:31N 39°11' W 009°28'1 1.2
2018-Feb-16 06:00N 39°11' W 009°29'0 0.9
2018-Feb-16 05:29N 39°11' W 009°29'0 0.9
2018-Feb-16 05:00N 39°11' W 009°29'3 5.0
2018-Feb-16 04:30N 39°13' W 009°28'3 0.2
2018-Feb-15 16:37N 39°16' W 009°28'1 1.7
2018-Feb-15 15:54N 39°15' W 009°28'1 1.4
2018-Feb-15 15:30N 39°14' W 009°28'1 1.0
2018-Feb-15 15:00N 39°14' W 009°28'2 4.2
2018-Feb-15 14:30N 39°12' W 009°29'1 1.8
2018-Feb-15 14:00N 39°11' W 009°28'0 0.6
2018-Feb-15 13:30N 39°11' W 009°28'2 3.2
2018-Feb-15 13:00N 39°12' W 009°29'3 6.6
2018-Feb-15 12:29N 39°16' W 009°29'0 0.7
2018-Feb-15 11:59N 39°15' W 009°29'1 1.8
2018-Feb-15 11:27N 39°14' W 009°29'1 1.8
2018-Feb-15 10:53N 39°13' W 009°30'1 1.7
2018-Feb-15 10:30N 39°13' W 009°30'2 3.5
2018-Feb-15 09:59N 39°11' W 009°29'1 1.2
2018-Feb-15 09:30N 39°10' W 009°29'1 1.3
2018-Feb-15 09:00N 39°11' W 009°28'1 1.1
2018-Feb-15 08:30N 39°10' W 009°29'1 1.4
2018-Feb-15 08:00N 39°11' W 009°28'1 1.5
2018-Feb-15 07:30N 39°11' W 009°29'0 1.0
2018-Feb-15 07:00N 39°11' W 009°29'2 3.5
2018-Feb-15 06:30N 39°13' W 009°28'3 6.7
2018-Feb-15 06:00N 39°16' W 009°28'3 5.5
2018-Feb-15 05:27N 39°18' W 009°25'4 0.3
2018-Feb-14 14:09N 39°14' W 009°28'1 1.9
2018-Feb-14 13:49N 39°14' W 009°28'1 1.6
2018-Feb-14 13:25N 39°13' W 009°28'2 5.3
2018-Feb-14 13:00N 39°11' W 009°29'1 2.1
2018-Feb-14 12:30N 39°10' W 009°29'1 2.1
2018-Feb-14 11:59N 39°11' W 009°29'1 2.4
2018-Feb-14 11:29N 39°12' W 009°30'1 1.1
2018-Feb-14 10:58N 39°13' W 009°30'1 1.5
2018-Feb-14 10:30N 39°12' W 009°30'0 0.2
2018-Feb-14 09:59N 39°12' W 009°30'1 1.2
2018-Feb-14 09:30N 39°13' W 009°30'1 1.4
2018-Feb-14 09:00N 39°13' W 009°29'1 1.7
2018-Feb-14 08:31N 39°14' W 009°29'1 1.6
2018-Feb-14 08:00N 39°15' W 009°29'0 0.3
2018-Feb-14 07:29N 39°15' W 009°29'1 1.7
2018-Feb-14 06:58N 39°14' W 009°29'1 1.3
2018-Feb-14 06:30N 39°15' W 009°30'1 1.5
2018-Feb-14 05:55N 39°16' W 009°29'2 5.3
2018-Feb-14 05:29N 39°14' W 009°28'3 0.2
2018-Feb-13 11:26N 39°17' W 009°28'2 5.0
2018-Feb-13 11:01N 39°15' W 009°29'2 3.7
2018-Feb-13 10:30N 39°13' W 009°30'1 1.2
2018-Feb-13 10:00N 39°12' W 009°30'1 1.4
2018-Feb-13 09:31N 39°11' W 009°29'1 1.5
2018-Feb-13 09:00N 39°11' W 009°29'0 0.4
2018-Feb-13 08:30N 39°11' W 009°29'0 0.2
2018-Feb-13 08:00N 39°11' W 009°29'0 0.8
2018-Feb-13 07:30N 39°10' W 009°29'1 1.4
2018-Feb-13 07:00N 39°11' W 009°28'1 1.6
2018-Feb-13 06:31N 39°10' W 009°29'1 1.8
2018-Feb-13 06:00N 39°11' W 009°30'1 1.9
2018-Feb-13 05:28N 39°12' W 009°29'1 1.6
2018-Feb-13 04:59N 39°13' W 009°30'3 6.5
2018-Feb-13 04:30N 39°16' W 009°29'2 0.2
2018-Feb-12 18:25N 39°15' W 009°27'3 7.1
2018-Feb-12 18:01N 39°12' W 009°29'2 3.5
2018-Feb-12 17:31N 39°10' W 009°29'1 1.9
2018-Feb-12 17:00N 39°11' W 009°29'  
Track history (hours):
 
Tides and Currents Weather Stations Pressure Air Temp Water Temp Dewpoint Dewpoint Depression Visibility Wind Speed Wind Dir Waves Ship Positions

Mae Purissima

Last reported at 2018-Feb-22 06:58 UTC. Time now 2018-Feb-22 07:26 UTC.
Position N 39°11' W 009°29'.

Length 18 m.

Type: Fishing. MMSI: 263414850.

Date/timePositionNaut miles runAvg speedWind from/ knotsBaromVisibWave heightAir tempDewpointWater temp
2018-Feb-22 06:58N 39°11' W 009°29'0 0.4
2018-Feb-22 06:30N 39°11' W 009°29'0 0.1
2018-Feb-22 05:59N 39°11' W 009°29'1 1.3
2018-Feb-22 05:30N 39°11' W 009°29'1 1.6
2018-Feb-22 04:51N 39°12' W 009°30'5 0.4
2018-Feb-21 15:48N 39°17' W 009°27'3 6.2
2018-Feb-21 15:24N 39°14' W 009°29'2 3.5
2018-Feb-21 14:55N 39°13' W 009°30'1 1.5
2018-Feb-21 14:27N 39°12' W 009°30'0 0.2
2018-Feb-21 14:00N 39°12' W 009°30'1 1.4
2018-Feb-21 13:30N 39°13' W 009°30'1 1.4
2018-Feb-21 12:29N 39°14' W 009°30'1 1.8
2018-Feb-21 11:57N 39°13' W 009°30'2 5.5
2018-Feb-21 11:30N 39°11' W 009°29'0 0.7
2018-Feb-21 11:00N 39°11' W 009°28'1 1.9
2018-Feb-21 10:30N 39°11' W 009°29'1 1.4
2018-Feb-21 09:54N 39°10' W 009°29'0 0.5
2018-Feb-21 09:30N 39°10' W 009°29'1 1.4
2018-Feb-21 09:01N 39°11' W 009°28'1 1.2
2018-Feb-21 08:30N 39°10' W 009°29'1 1.4
2018-Feb-21 08:00N 39°11' W 009°28'1 1.6
2018-Feb-21 07:31N 39°11' W 009°29'1 1.3
2018-Feb-21 06:59N 39°11' W 009°29'1 1.2
2018-Feb-21 06:31N 39°11' W 009°29'0 0.3
2018-Feb-21 06:00N 39°11' W 009°29'1 3.0
2018-Feb-21 05:30N 39°13' W 009°30'1 1.6
2018-Feb-21 04:59N 39°13' W 009°29'2 0.2
2018-Feb-20 14:43N 39°16' W 009°28'1 6.1
2018-Feb-20 14:29N 39°14' W 009°29'2 3.6
2018-Feb-20 14:00N 39°13' W 009°30'1 1.5
2018-Feb-20 13:29N 39°12' W 009°30'0 0.8
2018-Feb-20 13:00N 39°12' W 009°30'1 1.3
2018-Feb-20 12:30N 39°13' W 009°30'1 2.3
2018-Feb-20 11:54N 39°14' W 009°30'1 2.8
2018-Feb-20 11:30N 39°13' W 009°30'1 1.5
2018-Feb-20 11:00N 39°13' W 009°30'1 1.4
2018-Feb-20 10:30N 39°12' W 009°30'2 3.2
2018-Feb-20 10:00N 39°11' W 009°29'0 0.7
2018-Feb-20 09:30N 39°10' W 009°29'1 1.6
2018-Feb-20 09:00N 39°11' W 009°29'0 0.8
2018-Feb-20 08:30N 39°11' W 009°29'0 0.3
2018-Feb-20 07:59N 39°11' W 009°29'0 1.0
2018-Feb-20 07:30N 39°10' W 009°29'0 0.5
2018-Feb-20 06:59N 39°10' W 009°29'0 0.3
2018-Feb-20 06:31N 39°11' W 009°29'0 0.4
2018-Feb-20 06:00N 39°11' W 009°29'0 0.5
2018-Feb-20 05:30N 39°10' W 009°28'1 1.1
2018-Feb-20 05:00N 39°11' W 009°29'1 1.0
2018-Feb-20 04:30N 39°11' W 009°29'1 2.7
2018-Feb-20 03:58N 39°13' W 009°30'1 1.2
2018-Feb-20 03:30N 39°13' W 009°29'5 6.2
2018-Feb-20 02:40N 39°17' W 009°25'3 0.2
2018-Feb-19 08:47N 39°14' W 009°27'2 7.5
2018-Feb-19 08:29N 39°12' W 009°29'2 3.6
2018-Feb-19 07:58N 39°10' W 009°29'0 0.9
2018-Feb-19 07:30N 39°11' W 009°29'1 1.3
2018-Feb-19 07:00N 39°11' W 009°30'0 0.1
2018-Feb-19 06:30N 39°11' W 009°30'1 1.6
2018-Feb-19 06:00N 39°10' W 009°29'0 0.8
2018-Feb-19 05:30N 39°10' W 009°29'1 1.4
2018-Feb-19 05:00N 39°11' W 009°29'1 1.1
2018-Feb-19 04:30N 39°11' W 009°30'1 1.5
2018-Feb-19 04:00N 39°11' W 009°29'1 1.3
2018-Feb-19 03:30N 39°11' W 009°28'1 1.1
2018-Feb-19 03:00N 39°11' W 009°29'1 1.6
2018-Feb-19 02:30N 39°11' W 009°30'1 1.7
2018-Feb-19 02:00N 39°12' W 009°30'4 5.2
2018-Feb-19 01:19N 39°14' W 009°27'1 0.2
2018-Feb-18 16:57N 39°16' W 009°28'3 6.7
2018-Feb-18 16:30N 39°13' W 009°30'1 1.6
2018-Feb-18 15:58N 39°12' W 009°30'0 1.0
2018-Feb-18 15:30N 39°12' W 009°30'1 1.5
2018-Feb-18 15:00N 39°13' W 009°30'0 0.7
2018-Feb-18 14:27N 39°12' W 009°30'2 4.1
2018-Feb-18 14:00N 39°11' W 009°28'1 1.0
2018-Feb-18 13:27N 39°10' W 009°29'1 1.8
2018-Feb-18 13:00N 39°10' W 009°30'1 1.5
2018-Feb-18 12:29N 39°10' W 009°30'0 0.6
2018-Feb-18 12:00N 39°10' W 009°30'0 0.2
2018-Feb-18 11:29N 39°10' W 009°30'2 3.0
2018-Feb-18 10:58N 39°10' W 009°32'2 3.2
2018-Feb-18 10:30N 39°11' W 009°34'1 1.2
2018-Feb-18 10:00N 39°11' W 009°34'0 0.9
2018-Feb-18 09:30N 39°11' W 009°33'1 1.1
2018-Feb-18 09:00N 39°11' W 009°34'1 1.3
2018-Feb-18 08:31N 39°11' W 009°33'2 4.1
2018-Feb-18 08:00N 39°11' W 009°30'1 1.4
2018-Feb-18 07:19N 39°10' W 009°29'0 1.1
2018-Feb-18 07:00N 39°10' W 009°29'0 0.5
2018-Feb-18 06:30N 39°10' W 009°29'1 1.3
2018-Feb-18 06:00N 39°11' W 009°29'2 3.7
2018-Feb-18 05:30N 39°13' W 009°30'1 1.6
2018-Feb-18 05:00N 39°13' W 009°29'5 6.8
2018-Feb-18 04:17N 39°17' W 009°25'4 0.3
2018-Feb-17 16:11N 39°15' W 009°29'2 6.9
2018-Feb-17 15:57N 39°13' W 009°29'1 2.1
2018-Feb-17 15:28N 39°13' W 009°30'1 1.2
2018-Feb-17 15:00N 39°12' W 009°30'1 1.5
2018-Feb-17 14:30N 39°13' W 009°30'0 0.3
2018-Feb-17 14:00N 39°13' W 009°30'3 6.5
2018-Feb-17 13:30N 39°11' W 009°33'0 0.6
2018-Feb-17 13:00N 39°11' W 009°34'3 5.6
2018-Feb-17 12:30N 39°10' W 009°30'1 1.6
2018-Feb-17 11:54N 39°10' W 009°29'1 2.5
2018-Feb-17 11:30N 39°11' W 009°30'0 0.5
2018-Feb-17 11:00N 39°11' W 009°30'0 0.5
2018-Feb-17 10:30N 39°11' W 009°29'1 1.3
2018-Feb-17 09:50N 39°10' W 009°29'1 1.6
2018-Feb-17 09:30N 39°10' W 009°29'0 0.6
2018-Feb-17 08:59N 39°10' W 009°29'0 0.9
2018-Feb-17 08:30N 39°11' W 009°28'0 0.3
2018-Feb-17 07:59N 39°11' W 009°29'0 0.4
2018-Feb-17 07:30N 39°11' W 009°29'0 0.5
2018-Feb-17 07:00N 39°11' W 009°29'0 0.5
2018-Feb-17 06:30N 39°11' W 009°29'1 1.0
2018-Feb-17 06:00N 39°11' W 009°28'1 0.9
2018-Feb-17 05:19N 39°11' W 009°29'1 4.1
2018-Feb-17 04:59N 39°12' W 009°30'1 1.6
2018-Feb-17 04:30N 39°13' W 009°30'1 1.0
2018-Feb-17 03:54N 39°13' W 009°30'0 0.6
2018-Feb-17 03:30N 39°12' W 009°30'0 0.6
2018-Feb-17 03:00N 39°12' W 009°30'0 0.5
2018-Feb-17 02:30N 39°12' W 009°30'0 0.4
2018-Feb-17 02:00N 39°12' W 009°30'0 0.3
2018-Feb-17 01:30N 39°11' W 009°30'0 0.3
2018-Feb-17 01:00N 39°11' W 009°30'0 0.2
2018-Feb-17 00:30N 39°11' W 009°30'0 0.1
2018-Feb-17 00:01N 39°11' W 009°30'0 0.1
2018-Feb-16 23:30N 39°11' W 009°30'1 1.6
2018-Feb-16 22:58N 39°11' W 009°29'1 1.4
2018-Feb-16 22:30N 39°11' W 009°29'0 0.8
2018-Feb-16 21:59N 39°10' W 009°29'0 0.6
2018-Feb-16 21:30N 39°10' W 009°29'1 1.0
2018-Feb-16 20:59N 39°10' W 009°29'1 1.3
2018-Feb-16 20:30N 39°11' W 009°30'3 6.5
2018-Feb-16 19:59N 39°14' W 009°27'2 0.4
2018-Feb-16 14:26N 39°16' W 009°27'2 1.7
2018-Feb-16 13:01N 39°13' W 009°28'0 1.8
2018-Feb-16 12:59N 39°13' W 009°28'2 5.1
2018-Feb-16 12:30N 39°11' W 009°29'1 1.3
2018-Feb-16 12:00N 39°11' W 009°29'0 0.5
2018-Feb-16 11:30N 39°10' W 009°29'1 1.9
2018-Feb-16 11:00N 39°11' W 009°30'0 0.5
2018-Feb-16 10:23N 39°11' W 009°29'1 1.3
2018-Feb-16 09:59N 39°10' W 009°29'0 0.6
2018-Feb-16 09:30N 39°10' W 009°29'1 1.1
2018-Feb-16 09:00N 39°11' W 009°28'0 0.2
2018-Feb-16 08:30N 39°11' W 009°28'1 1.1
2018-Feb-16 08:00N 39°10' W 009°29'1 1.4
2018-Feb-16 07:30N 39°11' W 009°28'1 1.4
2018-Feb-16 07:00N 39°10' W 009°29'1 1.5
2018-Feb-16 06:31N 39°11' W 009°28'1 1.2
2018-Feb-16 06:00N 39°11' W 009°29'0 0.9
2018-Feb-16 05:29N 39°11' W 009°29'0 0.9
2018-Feb-16 05:00N 39°11' W 009°29'3 5.0
2018-Feb-16 04:30N 39°13' W 009°28'3 0.2
2018-Feb-15 16:37N 39°16' W 009°28'1 1.7
2018-Feb-15 15:54N 39°15' W 009°28'1 1.4
2018-Feb-15 15:30N 39°14' W 009°28'1 1.0
2018-Feb-15 15:00N 39°14' W 009°28'2 4.2
2018-Feb-15 14:30N 39°12' W 009°29'1 1.8
2018-Feb-15 14:00N 39°11' W 009°28'0 0.6
2018-Feb-15 13:30N 39°11' W 009°28'2 3.2
2018-Feb-15 13:00N 39°12' W 009°29'3 6.6
2018-Feb-15 12:29N 39°16' W 009°29'0 0.7
2018-Feb-15 11:59N 39°15' W 009°29'1 1.8
2018-Feb-15 11:27N 39°14' W 009°29'1 1.8
2018-Feb-15 10:53N 39°13' W 009°30'1 1.7
2018-Feb-15 10:30N 39°13' W 009°30'2 3.5
2018-Feb-15 09:59N 39°11' W 009°29'1 1.2
2018-Feb-15 09:30N 39°10' W 009°29'1 1.3
2018-Feb-15 09:00N 39°11' W 009°28'1 1.1
2018-Feb-15 08:30N 39°10' W 009°29'1 1.4
2018-Feb-15 08:00N 39°11' W 009°28'1 1.5
2018-Feb-15 07:30N 39°11' W 009°29'0 1.0
2018-Feb-15 07:00N 39°11' W 009°29'2 3.5
2018-Feb-15 06:30N 39°13' W 009°28'3 6.7
2018-Feb-15 06:00N 39°16' W 009°28'3 5.5
2018-Feb-15 05:27N 39°18' W 009°25'4 0.3
2018-Feb-14 14:09N 39°14' W 009°28'1 1.9
2018-Feb-14 13:49N 39°14' W 009°28'1 1.6
2018-Feb-14 13:25N 39°13' W 009°28'2 5.3
2018-Feb-14 13:00N 39°11' W 009°29'1 2.1
2018-Feb-14 12:30N 39°10' W 009°29'1 2.1
2018-Feb-14 11:59N 39°11' W 009°29'1 2.4
2018-Feb-14 11:29N 39°12' W 009°30'1 1.1
2018-Feb-14 10:58N 39°13' W 009°30'1 1.5
2018-Feb-14 10:30N 39°12' W 009°30'0 0.2
2018-Feb-14 09:59N 39°12' W 009°30'1 1.2
2018-Feb-14 09:30N 39°13' W 009°30'1 1.4
2018-Feb-14 09:00N 39°13' W 009°29'1 1.7
2018-Feb-14 08:31N 39°14' W 009°29'1 1.6
2018-Feb-14 08:00N 39°15' W 009°29'0 0.3
2018-Feb-14 07:29N 39°15' W 009°29'1 1.7
2018-Feb-14 06:58N 39°14' W 009°29'1 1.3
2018-Feb-14 06:30N 39°15' W 009°30'1 1.5
2018-Feb-14 05:55N 39°16' W 009°29'2 5.3
2018-Feb-14 05:29N 39°14' W 009°28'3 0.2
2018-Feb-13 11:26N 39°17' W 009°28'2 5.0
2018-Feb-13 11:01N 39°15' W 009°29'2 3.7
2018-Feb-13 10:30N 39°13' W 009°30'1 1.2
2018-Feb-13 10:00N 39°12' W 009°30'1 1.4
2018-Feb-13 09:31N 39°11' W 009°29'1 1.5
2018-Feb-13 09:00N 39°11' W 009°29'0 0.4
2018-Feb-13 08:30N 39°11' W 009°29'0 0.2
2018-Feb-13 08:00N 39°11' W 009°29'0 0.8
2018-Feb-13 07:30N 39°10' W 009°29'1 1.4
2018-Feb-13 07:00N 39°11' W 009°28'1 1.6
2018-Feb-13 06:31N 39°10' W 009°29'1 1.8
2018-Feb-13 06:00N 39°11' W 009°30'1 1.9
2018-Feb-13 05:28N 39°12' W 009°29'1 1.6
2018-Feb-13 04:59N 39°13' W 009°30'3 6.5
2018-Feb-13 04:30N 39°16' W 009°29'2 0.2
2018-Feb-12 18:25N 39°15' W 009°27'3 7.1
2018-Feb-12 18:01N 39°12' W 009°29'2 3.5
2018-Feb-12 17:31N 39°10' W 009°29'1 1.9
2018-Feb-12 17:00N 39°11' W 009°29'  

Dump ship's entire track history